North Dighton, MA

41° 51' 30"N, 71° 08' 44"W, Elevation 95 ft.
Eastern Time

Hourly observations for the last 72 hours

Date Time Temperature (°F) Humi-
dity

(%)
Wind
(mph)
Pressure Rain (in) Sun
(W/m2)
UV ET
(in)
Air Dew 6 Hour 1 Hr 3 Hr 6 Hr Day
Alt
(in)
Sea
Level

(mb)
Max Min
8 21:00 73.9 71.1 91 S 5 G 9 29.94 1014.0 0.04 0 0.0 0.145
8 20:00 75.6 71.5 83.5 75.6 87 S 8 G 14 29.92 1013.2 0.04 7 0.0 0.143
8 19:00 77.8 72.6 84 S 4 G 11 29.95 1014.2 0.04 62 0.0 0.139
8 18:00 79.2 73.2 82 SSE 5 G 13 29.94 1013.8 0.04 188 0.7 0.132
8 17:00 81.3 73.0 76 S 10 G 18 29.92 1013.2 0.04 236 1.6 0.118
8 16:00 82.6 74.3 76 S 13 G 21 29.92 1013.2 0.04 687 4.0 0.099
8 15:00 82.1 73.4 75 S 11 G 22 29.94 1014.1 0.04 541 4.7 0.082
8 14:00 83.3 75.0 83.3 70.8 76 SSE 5 G 20 29.95 1014.4 0.01 0.04 524 5.0 0.058
8 13:00 82.1 73.8 76 S 9 G 16 29.98 1015.4 0.04 900 7.8 0.038
8 12:00 79.0 73.0 82 S 10 G 19 30.00 1016.0 0.04 355 6.7 0.025
8 11:00 76.3 72.5 88 S 3 G 13 30.00 1016.1 0.01 0.04 306 2.6 0.014
8 10:00 75.4 72.3 90 S 7 G 15 30.02 1016.5 0.04 547 4.7 0.006
8 09:00 72.4 70.9 95 S 5 G 11 30.02 1016.8 0.01 0.04 216 1.4 0.003
8 08:00 70.9 70.0 70.9 65.9 97 S 6 G 15 30.03 1016.9 0.03 0.03 114 0.6 0.001
8 07:00 69.3 68.4 97 S 4 G 9 30.03 1017.0 0.03 44 0.0 0.000
8 06:00 68.2 67.3 97 S 2 G 6 30.03 1017.1 0.03 9 0.0 0.000
8 05:00 67.4 66.2 96 SSE 4 G 8 30.03 1017.1 0.03 0.03 0 0.0 0.000
8 04:00 66.8 65.6 96 S 3 G 6 30.04 1017.2 0.02 0.03 0 0.0 0.000
8 03:00 66.5 65.3 96 SSE 2 G 5 30.05 1017.7 0.01 0.01 0 0.0 0.000
8 02:00 66.0 64.8 66.8 64.8 96 Calm 30.07 1018.2 0.00 0 0.0 0.000
8 01:00 65.7 64.2 95 SE 1 G 4 30.07 1018.4 0.00 0 0.0 0.000
8 00:00 65.7 63.6 93 SSE 1 G 5 30.08 1018.8 0.00 0 0.0 0.202
7 23:00 65.4 62.7 91 SSE 3 G 11 30.09 1019.0 0.00 0 0.0 0.201
7 22:00 64.8 62.1 91 SE 7 G 12 30.09 1019.1 0.00 0 0.0 0.200
7 21:00 65.3 61.7 88 SE 3 G 10 30.11 1019.6 0.00 0 0.0 0.199
7 20:00 66.8 61.5 76.8 66.8 83 SSE 6 G 12 30.11 1019.6 0.00 21 0.0 0.197
7 19:00 69.9 60.9 73 SSE 5 G 9 30.12 1019.9 0.00 42 0.0 0.190
7 18:00 73.5 61.0 65 SSE 7 G 15 30.11 1019.6 0.00 315 1.0 0.178
7 17:00 74.1 59.8 61 S 7 G 15 30.11 1019.7 0.00 494 2.2 0.162
7 16:00 75.7 58.9 56 S 7 G 14 30.13 1020.2 0.00 378 3.1 0.143
7 15:00 74.7 55.9 52 SSE 8 G 20 30.13 1020.2 0.00 524 3.8 0.121
7 14:00 76.8 58.4 77.0 65.1 53 S 8 G 21 30.13 1020.3 0.00 772 6.1 0.095
7 13:00 76.5 57.6 52 SSE 9 G 17 30.14 1020.5 0.00 911 7.6 0.069
7 12:00 75.7 61.3 61 S 8 G 13 30.14 1020.6 0.00 884 7.3 0.046
7 11:00 74.8 64.4 70 SSE 6 G 13 30.14 1020.8 0.00 807 6.1 0.027
7 10:00 72.4 63.3 73 SSE 9 G 11 30.16 1021.2 0.00 622 4.3 0.014
7 09:00 68.7 63.0 82 SE 7 G 10 30.17 1021.5 0.00 527 2.6 0.006
7 08:00 65.2 61.6 65.3 61.5 88 ESE 3 G 8 30.16 1021.4 0.00 258 1.1 0.001
7 07:00 62.4 61.2 96 SSE 0 G 2 30.16 1021.3 0.00 91 0.0 0.000
7 06:00 61.5 60.3 96 Calm 30.16 1021.2 0.00 26 0.0 0.000
7 05:00 62.4 61.2 96 Calm 30.15 1020.9 0.00 0 0.0 0.000
7 04:00 62.3 61.1 96 Calm 30.13 1020.4 0.00 0 0.0 0.000
7 03:00 62.5 61.3 96 Calm 30.14 1020.5 0.00 0 0.0 0.000
7 02:00 62.6 61.1 69.7 61.8 95 Calm 30.14 1020.5 0.00 0 0.0 0.000
7 01:00 63.1 61.6 95 Calm 30.15 1020.9 0.00 0 0.0 0.000
7 00:00 62.4 61.2 96 Calm 30.14 1020.6 0.05 0 0.0 0.130
6 23:00 61.9 60.2 94 Calm 30.13 1020.2 0.05 0 0.0 0.130
6 22:00 62.9 60.8 93 ENE 0 G 1 30.12 1020.1 0.05 0 0.0 0.130
6 21:00 66.3 62.3 87 Calm 30.11 1019.8 0.05 0 0.0 0.130
6 20:00 69.7 62.5 76.4 69.7 78 E 2 G 7 30.08 1018.8 0.05 18 0.0 0.127
6 19:00 72.2 61.9 70 E 4 G 11 30.08 1018.7 0.05 162 0.0 0.120
6 18:00 74.7 63.9 69 E 3 G 12 30.08 1018.5 0.05 338 0.9 0.108
6 17:00 76.1 66.4 72 NNE 4 G 12 30.07 1018.4 0.05 515 2.0 0.092
6 16:00 76.0 66.3 72 NE 4 G 12 30.06 1018.0 0.05 668 3.6 0.073
6 15:00 75.7 67.2 75 ENE 3 G 14 30.06 1018.1 0.05 826 5.3 0.052
6 14:00 73.1 66.2 73.3 67.6 79 NE 9 G 15 30.07 1018.5 0.05 896 6.5 0.037
6 13:00 70.8 66.1 85 NNE 6 G 13 30.07 1018.4 0.05 367 2.9 0.029
6 12:00 71.2 66.5 85 N 8 G 14 30.07 1018.2 0.05 267 1.9 0.019
6 11:00 69.4 66.0 89 NNE 7 G 12 30.06 1017.9 0.05 466 1.8 0.012
6 10:00 68.6 65.9 91 NNW 8 G 12 30.03 1017.1 0.05 237 1.5 0.008
6 09:00 68.5 66.1 92 N 6 G 10 30.02 1016.8 0.05 172 0.9 0.003
6 08:00 67.6 66.7 67.8 65.0 97 N 6 G 9 30.00 1016.1 0.05 160 0.6 0.001
6 07:00 67.0 66.4 98 N 4 G 8 29.98 1015.4 0.05 76 0.0 0.000
6 06:00 66.4 65.5 97 N 2 G 3 29.96 1014.7 0.05 18 0.0 0.000
6 05:00 66.2 65.3 97 NNW 3 G 5 29.95 1014.2 0.05 0 0.0 0.000
6 04:00 65.1 64.2 97 Calm 29.93 1013.4 0.05 0 0.0 0.000
6 03:00 66.3 65.1 96 Calm 29.93 1013.5 0.05 0 0.0 0.000
6 02:00 67.8 66.6 75.1 67.7 96 Calm 29.93 1013.6 0.05 0.05 0.05 0 0.0 0.000
6 01:00 69.5 68.0 95 SE 2 G 5 29.93 1013.5 0.05 0.05 0 0.0 0.000
6 00:00 71.7 68.9 91 NNW 6 G 8 29.95 1014.2 0.00 0 0.0 0.160
5 23:00 71.5 69.4 93 S 5 G 17 29.91 1012.8 0.00 0 0.0 0.159
5 22:00 71.7 69.3 92 S 6 G 10 29.92 1013.2 0.00 0 0.0 0.158

Data generated by WxSolution Version 1.9.1.8, Build 2020.04.28.